createdAt,value
2022-11-12T00:01:19.203Z,77.43
2022-11-12T00:06:51.463Z,72.17
2022-11-12T00:09:37.352Z,70.43
2022-11-12T00:12:23.336Z,63.25
2022-11-12T00:15:09.899Z,68.32
2022-11-12T00:17:55.812Z,72.47
2022-11-12T00:20:41.748Z,75.75
2022-11-12T00:23:27.549Z,82.10
2022-11-12T00:26:13.635Z,72.90
2022-11-12T00:28:59.660Z,83.50
2022-11-12T00:31:45.273Z,82.85
2022-11-12T00:34:31.410Z,81.25
2022-11-12T00:37:17.303Z,73.25
2022-11-12T00:42:52.374Z,74.07
2022-11-12T00:45:38.346Z,83.53
2022-11-12T00:48:24.807Z,78.68
2022-11-12T00:51:10.988Z,85.18
2022-11-12T00:53:56.698Z,78.47
2022-11-12T00:56:42.729Z,78.28
2022-11-12T01:02:14.457Z,75.65
2022-11-12T01:07:46.214Z,70.32
2022-11-12T01:10:31.938Z,74.75
2022-11-12T01:13:17.833Z,76.63
2022-11-12T01:16:19.848Z,77.45
2022-11-12T01:19:10.600Z,73.68
2022-11-12T01:21:56.512Z,70.60
2022-11-12T01:24:42.552Z,72.10
2022-11-12T01:27:28.543Z,67.07
2022-11-12T01:30:14.565Z,71.57
2022-11-12T01:33:00.503Z,70.53
2022-11-12T01:35:46.487Z,68.10
2022-11-12T01:38:38.189Z,70.00
2022-11-12T01:41:29.981Z,70.50
2022-11-12T01:44:29.152Z,66.30
2022-11-12T01:47:31.550Z,69.80
2022-11-12T01:50:34.954Z,64.65
2022-11-12T01:53:26.673Z,65.45
2022-11-12T01:56:15.262Z,75.03
2022-11-12T01:59:14.434Z,66.35
2022-11-12T02:02:00.579Z,68.32
2022-11-12T02:04:50.601Z,70.20
2022-11-12T02:07:40.692Z,68.75
2022-11-12T02:10:28.382Z,61.70
2022-11-12T02:13:33.087Z,63.08
2022-11-12T02:16:43.063Z,61.33
2022-11-12T02:19:35.939Z,59.58
2022-11-12T02:22:24.802Z,54.15
2022-11-12T02:25:23.424Z,55.40
2022-11-12T02:28:09.440Z,60.58
2022-11-12T02:30:55.244Z,59.33
2022-11-12T02:33:41.390Z,58.60
2022-11-12T02:36:31.060Z,58.13
2022-11-12T02:39:17.665Z,59.13
2022-11-12T02:42:04.339Z,59.28
2022-11-12T02:44:53.927Z,63.20
2022-11-12T02:47:39.719Z,55.60
2022-11-12T02:50:30.642Z,54.63
2022-11-12T02:53:17.916Z,52.33
2022-11-12T02:56:09.823Z,52.40
2022-11-12T02:59:12.365Z,54.47
2022-11-12T03:01:58.492Z,54.10
2022-11-12T03:07:37.782Z,54.50
2022-11-12T03:10:30.194Z,52.60
2022-11-12T03:13:18.132Z,53.38
2022-11-12T03:16:07.788Z,54.63
2022-11-12T03:18:54.766Z,54.47
2022-11-12T03:21:41.109Z,55.03
2022-11-12T03:24:28.177Z,55.05
2022-11-12T03:27:22.271Z,57.70
2022-11-12T03:30:10.183Z,61.47
2022-11-12T03:33:13.102Z,54.03
2022-11-12T03:36:05.156Z,56.28
2022-11-12T03:38:53.944Z,55.88
2022-11-12T03:41:43.616Z,55.45
2022-11-12T03:44:29.718Z,49.83
2022-11-12T03:47:15.886Z,53.10
2022-11-12T03:50:06.584Z,49.60
2022-11-12T03:53:06.237Z,47.80
2022-11-12T03:55:52.432Z,48.88
2022-11-12T03:58:38.551Z,49.20
2022-11-12T04:01:24.940Z,48.15
2022-11-12T04:04:13.597Z,49.25
2022-11-12T04:07:28.327Z,49.00
2022-11-12T04:10:17.184Z,53.42
2022-11-12T04:13:21.645Z,58.30
2022-11-12T04:16:39.610Z,49.53
2022-11-12T04:19:44.347Z,53.53
2022-11-12T04:22:30.373Z,52.65
2022-11-12T04:25:34.992Z,52.47
2022-11-12T04:28:21.078Z,46.03
2022-11-12T04:31:10.266Z,48.72
2022-11-12T04:34:16.721Z,50.60
2022-11-12T04:37:05.771Z,48.97
2022-11-12T04:39:53.455Z,52.47
2022-11-12T04:43:03.968Z,53.00
2022-11-12T04:45:53.835Z,51.45
2022-11-12T04:48:50.013Z,53.42
2022-11-12T04:54:56.499Z,48.00
2022-11-12T04:57:57.599Z,50.22
2022-11-12T05:00:47.699Z,51.20
2022-11-12T05:03:39.059Z,51.22
2022-11-12T05:06:46.646Z,54.90
2022-11-12T05:09:36.868Z,49.65
2022-11-12T05:15:25.789Z,50.70
2022-11-12T05:18:12.355Z,50.42
2022-11-12T05:21:18.574Z,52.63
2022-11-12T05:24:05.301Z,53.17
2022-11-12T05:26:52.096Z,50.65
2022-11-12T05:29:41.470Z,54.55
2022-11-12T05:32:28.211Z,51.60
2022-11-12T05:35:14.598Z,55.22
2022-11-12T05:38:02.328Z,56.05
2022-11-12T05:40:48.809Z,56.25
2022-11-12T05:43:36.979Z,52.47
2022-11-12T05:46:25.681Z,57.25
2022-11-12T05:51:58.150Z,55.33
2022-11-12T05:54:47.199Z,56.13
2022-11-12T05:57:33.448Z,59.00
2022-11-12T06:00:19.612Z,59.00
2022-11-12T06:05:54.844Z,58.10
2022-11-12T06:08:41.473Z,59.88
2022-11-12T06:11:27.353Z,60.85
2022-11-12T06:14:16.206Z,60.63
2022-11-12T06:17:03.238Z,57.30
2022-11-12T06:19:49.739Z,63.58
2022-11-12T06:22:36.182Z,64.93
2022-11-12T06:28:10.599Z,58.42
2022-11-12T06:31:01.152Z,60.55
2022-11-12T06:33:48.241Z,59.58
2022-11-12T06:36:38.134Z,58.35
2022-11-12T06:39:25.867Z,59.35
2022-11-12T06:42:20.989Z,61.40
2022-11-12T06:45:08.110Z,57.13
2022-11-12T06:47:59.427Z,60.28
2022-11-12T06:50:45.846Z,53.80
2022-11-12T06:53:34.828Z,58.03
2022-11-12T06:56:21.128Z,58.25
2022-11-12T06:59:07.521Z,61.55
2022-11-12T07:04:40.117Z,60.95
2022-11-12T07:07:26.176Z,52.40
2022-11-12T07:10:21.610Z,52.65
2022-11-12T07:13:11.117Z,55.72
2022-11-12T07:16:00.276Z,56.47
2022-11-12T07:18:49.417Z,82.30
2022-11-12T07:21:43.785Z,73.60
2022-11-12T07:24:36.586Z,60.80
2022-11-12T07:27:30.060Z,56.08
2022-11-12T07:30:17.125Z,56.72
2022-11-12T07:33:08.369Z,71.85
2022-11-12T07:36:10.070Z,56.70
2022-11-12T07:38:56.624Z,55.50
2022-11-12T07:41:44.408Z,54.30
2022-11-12T07:44:29.946Z,55.45
2022-11-12T07:47:15.668Z,52.67
2022-11-12T07:50:01.745Z,53.78
2022-11-12T07:52:47.549Z,51.40
2022-11-12T07:55:33.911Z,50.80
2022-11-12T08:01:45.384Z,47.53
2022-11-12T08:04:34.794Z,50.42
2022-11-12T08:07:20.485Z,50.83
2022-11-12T08:10:08.524Z,47.28
2022-11-12T08:12:57.535Z,48.65
2022-11-12T08:15:45.756Z,42.75
2022-11-12T08:18:35.716Z,39.58
2022-11-12T08:24:08.054Z,35.72
2022-11-12T08:26:53.693Z,36.20
2022-11-12T08:29:39.636Z,33.38
2022-11-12T08:32:25.547Z,31.10
2022-11-12T08:38:04.102Z,36.55
2022-11-12T08:40:50.169Z,36.58
2022-11-12T08:43:38.133Z,39.00
2022-11-12T08:46:24.232Z,36.97
2022-11-12T08:49:09.912Z,33.72
2022-11-12T08:54:42.631Z,31.40
2022-11-12T08:57:28.674Z,29.88
2022-11-12T09:03:04.053Z,28.13
2022-11-12T09:05:51.754Z,28.55
2022-11-12T09:08:37.951Z,28.95
2022-11-12T09:11:23.975Z,40.75
2022-11-12T09:14:12.714Z,24.88
2022-11-12T09:17:01.235Z,36.90
2022-11-12T09:19:47.431Z,34.58
2022-11-12T09:22:33.591Z,29.80
2022-11-12T09:25:21.823Z,19.52
2022-11-12T09:28:14.738Z,17.45
2022-11-12T09:31:02.050Z,16.95
2022-11-12T09:33:48.093Z,16.45
2022-11-12T09:36:39.547Z,24.13
2022-11-12T09:39:25.783Z,21.95
2022-11-12T09:42:21.546Z,23.15
2022-11-12T09:45:50.284Z,20.88
2022-11-12T09:49:01.580Z,16.63
2022-11-12T09:52:01.561Z,16.25
2022-11-12T09:55:13.528Z,17.27
2022-11-12T09:57:59.294Z,15.48
2022-11-12T10:01:19.032Z,14.05
2022-11-12T10:04:58.507Z,14.48
2022-11-12T10:08:19.539Z,25.40
2022-11-12T10:12:06.311Z,20.17
2022-11-12T10:16:37.264Z,19.20
2022-11-12T10:19:56.160Z,31.20
2022-11-12T10:23:27.806Z,15.70
2022-11-12T10:26:20.443Z,13.95
2022-11-12T10:29:32.049Z,21.20
2022-11-12T10:32:17.867Z,19.05
2022-11-12T10:35:04.797Z,14.50
2022-11-12T10:38:04.848Z,14.15
2022-11-12T10:40:50.507Z,13.15
2022-11-12T10:43:36.302Z,12.98
2022-11-12T10:46:43.091Z,12.23
2022-11-12T10:49:28.788Z,11.23
2022-11-12T10:52:24.235Z,10.90
2022-11-12T10:55:23.832Z,11.65
2022-11-12T10:58:19.791Z,11.88
2022-11-12T11:01:17.743Z,11.70
2022-11-12T11:04:04.124Z,12.50
2022-11-12T11:07:02.733Z,11.10
2022-11-12T11:10:01.590Z,11.15
2022-11-12T11:12:47.322Z,10.50
2022-11-12T11:15:33.053Z,10.23
2022-11-12T11:21:50.578Z,10.50
2022-11-12T11:25:28.539Z,10.23
2022-11-12T11:29:17.198Z,10.18
2022-11-12T11:32:45.928Z,13.15
2022-11-12T11:36:17.027Z,12.40
2022-11-12T11:40:13.546Z,13.45
2022-11-12T11:43:45.193Z,16.88
2022-11-12T11:47:21.989Z,18.20
2022-11-12T11:50:33.708Z,16.33
2022-11-12T11:54:09.229Z,16.50
2022-11-12T11:57:07.179Z,16.77
2022-11-12T12:00:12.739Z,13.98
2022-11-12T12:03:32.913Z,12.30
2022-11-12T12:06:31.505Z,12.27
2022-11-12T12:09:56.165Z,13.30
2022-11-12T12:13:21.715Z,12.63
2022-11-12T12:16:22.224Z,12.80
2022-11-12T12:19:39.513Z,12.38
2022-11-12T12:22:53.705Z,12.75
2022-11-12T12:25:54.984Z,11.90
2022-11-12T12:29:50.567Z,11.10
2022-11-12T12:32:42.941Z,10.85
2022-11-12T12:36:15.442Z,10.95
2022-11-12T12:39:42.302Z,10.20
2022-11-12T12:42:44.542Z,9.15
2022-11-12T12:45:44.695Z,9.52
2022-11-12T12:48:34.888Z,10.70
2022-11-12T12:51:22.033Z,9.93
2022-11-12T12:54:55.676Z,9.98
2022-11-12T12:57:41.845Z,9.43
2022-11-12T13:00:34.801Z,9.50
2022-11-12T13:04:09.847Z,8.85
2022-11-12T13:06:56.010Z,9.23
2022-11-12T13:09:42.356Z,9.20
2022-11-12T13:13:30.638Z,9.13
2022-11-12T13:17:06.904Z,9.65
2022-11-12T13:19:58.316Z,9.75
2022-11-12T13:22:46.935Z,9.30
2022-11-12T13:25:33.127Z,10.15
2022-11-12T13:31:26.817Z,9.60
2022-11-12T13:34:23.303Z,10.07
2022-11-12T13:40:22.991Z,9.68
2022-11-12T13:43:41.049Z,9.98
2022-11-12T13:46:34.656Z,8.85
2022-11-12T13:49:21.052Z,9.02
2022-11-12T13:52:06.950Z,8.98
2022-11-12T13:57:59.772Z,12.88
2022-11-12T14:00:58.539Z,13.88
2022-11-12T14:03:50.929Z,15.02
2022-11-12T14:07:08.580Z,16.90
2022-11-12T14:10:41.073Z,16.52
2022-11-12T14:14:15.017Z,18.63
2022-11-12T14:17:52.607Z,18.80
2022-11-12T14:20:42.201Z,19.60
2022-11-12T14:23:28.653Z,19.52
2022-11-12T14:26:42.594Z,19.33
2022-11-12T14:29:34.100Z,23.23
2022-11-12T14:32:20.975Z,23.88
2022-11-12T14:35:40.453Z,26.27
2022-11-12T14:38:40.985Z,27.83
2022-11-12T14:41:41.660Z,27.85
2022-11-12T14:44:37.196Z,28.15
2022-11-12T14:47:24.213Z,27.80
2022-11-12T14:50:37.389Z,26.70
2022-11-12T14:53:38.642Z,25.67
2022-11-12T14:56:48.855Z,26.35
2022-11-12T14:59:36.419Z,26.48
2022-11-12T15:02:49.828Z,27.90
2022-11-12T15:06:09.523Z,26.60
2022-11-12T15:08:59.781Z,27.05
2022-11-12T15:11:48.464Z,27.63
2022-11-12T15:14:35.404Z,24.95
2022-11-12T15:17:34.727Z,27.70
2022-11-12T15:20:21.139Z,27.33
2022-11-12T15:23:20.345Z,27.48
2022-11-12T15:26:45.322Z,26.10
2022-11-12T15:29:36.065Z,28.58
2022-11-12T15:32:22.145Z,31.48
2022-11-12T15:35:26.917Z,30.83
2022-11-12T15:38:49.928Z,31.55
2022-11-12T15:41:59.272Z,32.38
2022-11-12T15:44:46.245Z,32.45
2022-11-12T15:47:32.068Z,31.42
2022-11-12T15:50:22.947Z,34.85
2022-11-12T15:53:08.956Z,33.00
2022-11-12T15:55:54.799Z,41.55
2022-11-12T16:01:26.423Z,42.30
2022-11-12T16:04:13.495Z,43.53
2022-11-12T16:07:00.513Z,48.10
2022-11-12T16:09:46.283Z,43.58
2022-11-12T16:12:32.056Z,46.58
2022-11-12T16:15:25.472Z,48.65
2022-11-12T16:18:12.067Z,43.05
2022-11-12T16:20:58.305Z,43.45
2022-11-12T16:23:44.486Z,45.45
2022-11-12T16:26:32.862Z,46.30
2022-11-12T16:29:18.515Z,49.65
2022-11-12T16:32:05.252Z,48.47
2022-11-12T16:34:55.760Z,50.20
2022-11-12T16:37:47.947Z,49.88
2022-11-12T16:40:37.511Z,51.10
2022-11-12T16:43:23.512Z,50.78
2022-11-12T16:46:41.764Z,48.95
2022-11-12T16:49:27.502Z,50.65
2022-11-12T16:52:13.140Z,48.92
2022-11-12T16:55:04.311Z,49.83
2022-11-12T16:57:50.781Z,54.70
2022-11-12T17:00:36.512Z,51.58
2022-11-12T17:03:22.153Z,50.95
2022-11-12T17:08:54.675Z,54.05
2022-11-12T17:11:40.917Z,58.70
2022-11-12T17:14:28.508Z,53.35
2022-11-12T17:17:14.711Z,59.38
2022-11-12T17:20:00.771Z,59.63
2022-11-12T17:25:32.344Z,59.88
2022-11-12T17:31:20.124Z,57.53
2022-11-12T17:34:07.214Z,59.63
2022-11-12T17:36:53.352Z,62.78
2022-11-12T17:39:39.168Z,66.82
2022-11-12T17:42:24.838Z,66.78
2022-11-12T17:45:10.629Z,67.60
2022-11-12T17:47:58.532Z,64.10
2022-11-12T17:50:44.705Z,62.15
2022-11-12T17:56:22.453Z,55.60
2022-11-12T17:59:09.078Z,57.78
2022-11-12T18:01:54.965Z,55.42
2022-11-12T18:04:41.076Z,56.10
2022-11-12T18:07:27.040Z,54.85
2022-11-12T18:10:19.347Z,53.67
2022-11-12T18:13:05.549Z,53.13
2022-11-12T18:15:51.414Z,52.53
2022-11-12T18:18:38.273Z,51.95
2022-11-12T18:21:26.544Z,52.45
2022-11-12T18:24:16.450Z,51.53
2022-11-12T18:27:02.325Z,51.50
2022-11-12T18:29:48.003Z,49.63
2022-11-12T18:32:35.371Z,51.53
2022-11-12T18:35:23.610Z,54.50
2022-11-12T18:38:18.087Z,53.20
2022-11-12T18:41:12.222Z,50.50
2022-11-12T18:43:59.393Z,51.38
2022-11-12T18:46:45.315Z,51.53
2022-11-12T18:49:34.224Z,53.78
2022-11-12T18:52:20.303Z,52.92
2022-11-12T18:57:53.282Z,52.17
2022-11-12T19:00:39.084Z,53.22
2022-11-12T19:03:25.018Z,55.20
2022-11-12T19:06:13.953Z,55.63
2022-11-12T19:09:01.373Z,55.60
2022-11-12T19:11:47.541Z,53.38
2022-11-12T19:14:33.656Z,53.03
2022-11-12T19:17:19.777Z,53.42
2022-11-12T19:20:06.912Z,54.50
2022-11-12T19:22:54.123Z,53.17
2022-11-12T19:25:39.911Z,54.60
2022-11-12T19:28:26.258Z,55.85
2022-11-12T19:31:23.165Z,55.88
2022-11-12T19:34:09.115Z,58.33
2022-11-12T19:37:11.813Z,60.20
2022-11-12T19:40:01.303Z,58.97
2022-11-12T19:42:48.052Z,58.28
2022-11-12T19:45:33.913Z,57.85
2022-11-12T19:48:19.906Z,58.25
2022-11-12T19:51:09.596Z,63.45
2022-11-12T19:53:55.428Z,60.30
2022-11-12T19:56:41.229Z,62.03
2022-11-12T19:59:27.190Z,65.93
2022-11-12T20:02:14.795Z,64.03
2022-11-12T20:05:00.905Z,64.07
2022-11-12T20:07:50.600Z,65.05
2022-11-12T20:10:36.840Z,67.22
2022-11-12T20:13:22.769Z,63.30
2022-11-12T20:18:57.542Z,63.00
2022-11-12T20:21:43.958Z,62.85
2022-11-12T20:24:30.325Z,64.68
2022-11-12T20:27:17.661Z,67.30
2022-11-12T20:30:04.830Z,65.63
2022-11-12T20:32:51.460Z,60.55
2022-11-12T20:35:37.926Z,61.75
2022-11-12T20:38:24.909Z,60.67
2022-11-12T20:41:19.328Z,60.38
2022-11-12T20:44:05.743Z,61.35
2022-11-12T20:49:37.489Z,60.55
2022-11-12T20:52:23.339Z,61.53
2022-11-12T20:55:09.439Z,61.40
2022-11-12T20:57:57.727Z,59.47
2022-11-12T21:00:43.787Z,62.80
2022-11-12T21:03:31.210Z,59.75
2022-11-12T21:06:22.269Z,61.80
2022-11-12T21:09:07.905Z,68.72
2022-11-12T21:11:53.959Z,71.75
2022-11-12T21:14:39.825Z,75.40
2022-11-12T21:17:25.779Z,72.65
2022-11-12T21:20:11.882Z,70.28
2022-11-12T21:22:57.897Z,62.45
2022-11-12T21:25:43.914Z,62.35
2022-11-12T21:28:30.199Z,61.95
2022-11-12T21:31:24.800Z,58.38
2022-11-12T21:34:14.451Z,56.47
2022-11-12T21:37:01.254Z,57.58
2022-11-12T21:39:49.185Z,57.40
2022-11-12T21:42:34.835Z,58.15
2022-11-12T21:48:06.768Z,54.42
2022-11-12T21:50:52.601Z,55.38
2022-11-12T21:53:39.995Z,49.38
2022-11-12T21:56:27.020Z,53.80
2022-11-12T21:59:13.214Z,54.35
2022-11-12T22:01:59.346Z,51.67
2022-11-12T22:04:44.971Z,53.55
2022-11-12T22:07:30.739Z,55.55
2022-11-12T22:10:17.376Z,53.50
2022-11-12T22:13:25.775Z,54.17
2022-11-12T22:16:19.629Z,52.55
2022-11-12T22:21:51.484Z,48.25
2022-11-12T22:24:37.418Z,50.08
2022-11-12T22:27:23.726Z,50.75
2022-11-12T22:30:10.678Z,50.17
2022-11-12T22:32:56.888Z,44.40
2022-11-12T22:38:37.554Z,37.38
2022-11-12T22:41:30.742Z,36.30
2022-11-12T22:44:16.861Z,37.03
2022-11-12T22:47:03.275Z,37.28
2022-11-12T22:49:49.379Z,34.85
2022-11-12T22:52:35.310Z,33.53
2022-11-12T22:55:21.827Z,35.92
2022-11-12T22:58:07.625Z,34.03
2022-11-12T23:00:53.599Z,32.15
2022-11-12T23:06:27.076Z,30.83
2022-11-12T23:09:17.234Z,30.80
2022-11-12T23:12:03.409Z,29.70
2022-11-12T23:14:51.783Z,28.17
2022-11-12T23:17:37.719Z,28.70
2022-11-12T23:20:23.770Z,28.52
2022-11-12T23:23:09.748Z,26.17
2022-11-12T23:26:01.525Z,24.33
2022-11-12T23:28:48.121Z,23.10
2022-11-12T23:31:34.333Z,24.48
2022-11-12T23:37:05.776Z,25.65
2022-11-12T23:39:51.700Z,24.80
2022-11-12T23:42:37.394Z,25.08
2022-11-12T23:45:23.591Z,24.10
2022-11-12T23:51:21.297Z,23.02
2022-11-12T23:54:07.115Z,24.65
2022-11-12T23:56:52.883Z,24.85
2022-11-12T23:59:38.683Z,22.67
